Time;durP1;ratioP1;P1;durP2;ratioP2;P2;SDS_P1;SDS_P2;PMS_P1;PMS_P2;Temp;Humidity;BMP_temperature;BMP_pressure;BME280_temperature;BME280_humidity;BME280_pressure;Samples;Min_cycle;Max_cycle;Signal;HPM_P1;HPM_P2
2023/07/07 00:02:08;;;;;;;2.20;1.60;;;12.80;99.90;;;;;;5074032;28;20036;-74
2023/07/07 00:04:34;;;;;;;2.35;1.77;;;12.80;99.90;;;;;;5072612;28;20369;-75
2023/07/07 00:06:59;;;;;;;2.33;1.50;;;12.70;99.90;;;;;;5077760;28;20051;-74
2023/07/07 00:09:25;;;;;;;1.92;1.10;;;12.60;99.90;;;;;;5076739;28;20040;-74
2023/07/07 00:11:52;;;;;;;1.77;1.20;;;12.60;99.90;;;;;;5072778;28;20045;-74
2023/07/07 00:14:17;;;;;;;2.60;1.40;;;12.50;99.90;;;;;;5075487;28;20075;-73
2023/07/07 00:16:43;;;;;;;5.43;1.67;;;12.40;99.90;;;;;;5079610;28;20068;-73
2023/07/07 00:19:09;;;;;;;3.03;1.60;;;12.40;99.90;;;;;;5075713;28;20284;-74
2023/07/07 00:21:37;;;;;;;3.63;1.65;;;12.30;99.90;;;;;;5073723;28;20036;-73
2023/07/07 00:24:05;;;;;;;2.20;1.50;;;12.30;99.90;;;;;;5079358;28;20141;-73
2023/07/07 00:26:32;;;;;;;2.35;1.55;;;12.30;99.90;;;;;;5074867;28;20036;-73
2023/07/07 00:28:58;;;;;;;4.45;1.63;;;12.30;99.90;;;;;;5061224;28;20080;-73
2023/07/07 00:31:24;;;;;;;2.45;1.50;;;12.30;99.90;;;;;;5067658;28;20040;-73
2023/07/07 00:33:49;;;;;;;2.35;1.50;;;12.30;99.90;;;;;;5057761;28;20515;-73
2023/07/07 00:36:15;;;;;;;2.95;1.83;;;12.30;99.90;;;;;;5072562;28;20045;-73
2023/07/07 00:38:41;;;;;;;4.38;2.03;;;12.30;99.90;;;;;;5052504;28;20081;-73
2023/07/07 00:41:08;;;;;;;3.35;2.05;;;12.30;99.90;;;;;;5066853;28;20129;-73
2023/07/07 00:43:35;;;;;;;3.70;2.00;;;12.40;99.90;;;;;;5089505;28;20141;-73
2023/07/07 00:46:02;;;;;;;4.20;2.30;;;12.40;99.90;;;;;;5092104;28;20050;-73
2023/07/07 00:48:36;;;;;;;3.95;2.55;;;12.50;99.90;;;;;;5087397;28;20036;-73
2023/07/07 00:51:05;;;;;;;3.72;2.60;;;12.60;99.90;;;;;;5077749;28;20050;-72
2023/07/07 00:53:31;;;;;;;4.07;2.60;;;12.60;99.90;;;;;;5083734;28;20047;-73
2023/07/07 00:56:01;;;;;;;4.97;2.67;;;12.60;99.90;;;;;;5073982;28;20036;-73
2023/07/07 00:58:28;;;;;;;4.93;2.95;;;12.70;99.90;;;;;;5084744;28;20083;-73
2023/07/07 01:01:06;;;;;;;4.35;3.05;;;12.80;99.90;;;;;;5095598;28;20043;-73
2023/07/07 01:03:37;;;;;;;4.07;3.28;;;12.80;99.90;;;;;;5093556;28;20085;-73
2023/07/07 01:06:07;;;;;;;4.88;3.50;;;12.80;99.90;;;;;;5092024;28;20044;-73
2023/07/07 01:08:39;;;;;;;4.30;2.75;;;12.90;99.90;;;;;;5092998;28;20093;-73
2023/07/07 01:11:05;;;;;;;5.00;3.30;;;12.90;99.90;;;;;;5093557;28;20410;-73
2023/07/07 01:13:31;;;;;;;6.03;4.05;;;12.90;99.90;;;;;;5092694;28;20531;-73
2023/07/07 01:16:18;;;;;;;5.90;4.00;;;13.00;99.90;;;;;;5080504;28;20377;-73
2023/07/07 01:18:58;;;;;;;5.97;3.78;;;13.00;99.90;;;;;;5072190;28;20469;-73
2023/07/07 01:21:39;;;;;;;7.13;4.13;;;13.00;99.90;;;;;;5069893;28;20078;-73
2023/07/07 01:24:31;;;;;;;6.30;4.15;;;13.10;99.90;;;;;;5089158;28;20047;-73
2023/07/07 01:27:05;;;;;;;5.95;4.00;;;13.10;99.90;;;;;;5058269;28;20447;-73
2023/07/07 01:29:50;;;;;;;6.50;4.20;;;13.10;99.90;;;;;;5074860;28;20488;-72
2023/07/07 01:32:21;;;;;;;4.70;3.10;;;13.20;99.90;;;;;;5091706;28;20063;-72
2023/07/07 01:34:47;;;;;;;7.53;5.35;;;13.20;99.90;;;;;;5083211;28;20048;-73
2023/07/07 01:37:13;;;;;;;7.50;4.95;;;13.20;99.90;;;;;;5072672;28;20102;-73
2023/07/07 01:39:42;;;;;;;9.18;5.85;;;13.30;99.90;;;;;;5089230;28;20036;-73
2023/07/07 01:42:28;;;;;;;6.57;4.32;;;13.30;99.90;;;;;;5092071;28;20043;-72
2023/07/07 01:45:23;;;;;;;6.95;4.80;;;13.40;99.90;;;;;;5090038;28;20048;-72
2023/07/07 01:48:01;;;;;;;5.15;3.90;;;13.40;99.90;;;;;;5072965;28;20041;-72
2023/07/07 01:50:31;;;;;;;9.30;5.15;;;13.40;99.90;;;;;;5078743;28;20032;-72
2023/07/07 01:53:11;;;;;;;12.57;6.63;;;13.40;99.90;;;;;;5079739;28;20037;-72
2023/07/07 01:55:42;;;;;;;8.68;5.95;;;13.50;99.90;;;;;;5070645;28;20044;-72
2023/07/07 01:58:10;;;;;;;6.18;4.38;;;13.50;99.90;;;;;;5092840;28;20044;-72
2023/07/07 02:00:36;;;;;;;8.88;5.75;;;13.50;99.90;;;;;;5092852;28;20057;-73
2023/07/07 02:03:08;;;;;;;8.88;5.90;;;13.60;99.90;;;;;;5086928;28;20043;-72
2023/07/07 02:05:34;;;;;;;9.15;5.63;;;13.60;99.90;;;;;;5086506;28;20084;-72
2023/07/07 02:08:00;;;;;;;9.85;6.30;;;13.50;99.90;;;;;;5091304;28;20048;-72
2023/07/07 02:10:26;;;;;;;7.88;5.10;;;13.50;99.90;;;;;;5081131;28;20045;-72
2023/07/07 02:12:52;;;;;;;6.05;4.53;;;13.50;99.90;;;;;;5085157;28;20147;-72
2023/07/07 02:15:17;;;;;;;7.28;4.53;;;13.50;99.90;;;;;;5080719;28;20485;-73
2023/07/07 02:17:43;;;;;;;8.88;5.15;;;13.50;99.90;;;;;;5074084;28;20388;-72
2023/07/07 02:20:09;;;;;;;11.02;6.38;;;13.40;99.90;;;;;;5085299;28;20097;-72
2023/07/07 02:22:37;;;;;;;9.23;5.75;;;13.50;99.90;;;;;;5057880;28;20039;-72
2023/07/07 02:25:04;;;;;;;9.38;5.18;;;13.50;99.90;;;;;;5075306;28;20082;-72
2023/07/07 02:27:29;;;;;;;8.30;5.63;;;13.50;99.90;;;;;;5091664;28;20474;-72
2023/07/07 02:29:55;;;;;;;9.25;6.25;;;13.50;99.90;;;;;;5096417;28;20126;-72
2023/07/07 02:32:21;;;;;;;11.57;6.53;;;13.50;99.90;;;;;;5095903;28;20036;-73
2023/07/07 02:34:49;;;;;;;8.98;6.32;;;13.50;99.90;;;;;;5083206;28;20056;-72
2023/07/07 02:37:18;;;;;;;9.75;6.70;;;13.60;99.90;;;;;;5086201;28;20127;-72
2023/07/07 02:39:44;;;;;;;9.05;6.60;;;13.60;99.90;;;;;;5095935;28;20503;-72
2023/07/07 02:42:11;;;;;;;9.43;6.85;;;13.60;99.90;;;;;;5082091;28;20408;-73
2023/07/07 02:44:37;;;;;;;9.93;6.95;;;13.60;99.90;;;;;;5092807;28;20040;-71
2023/07/07 02:47:02;;;;;;;10.55;6.65;;;13.70;99.90;;;;;;5075485;28;20115;-71
2023/07/07 02:49:28;;;;;;;8.48;6.63;;;13.70;99.90;;;;;;5087411;28;20035;-71
2023/07/07 02:51:54;;;;;;;10.15;6.93;;;13.70;99.90;;;;;;5084191;28;20072;-72
2023/07/07 02:54:19;;;;;;;13.10;6.70;;;13.80;99.90;;;;;;5089761;28;20052;-72
2023/07/07 02:56:45;;;;;;;10.15;7.20;;;13.90;99.90;;;;;;5058767;28;20048;-71
2023/07/07 02:59:11;;;;;;;10.45;6.82;;;13.90;99.90;;;;;;5074565;28;20075;-72
2023/07/07 03:01:36;;;;;;;8.43;6.32;;;13.90;99.90;;;;;;5079547;28;20081;-72
2023/07/07 03:04:02;;;;;;;11.23;7.18;;;14.00;99.90;;;;;;5084381;28;20052;-73
2023/07/07 03:06:28;;;;;;;9.82;6.32;;;14.00;99.90;;;;;;5086110;28;20036;-72
2023/07/07 03:08:54;;;;;;;9.48;6.93;;;14.10;99.90;;;;;;5075095;28;20079;-73
2023/07/07 03:11:22;;;;;;;9.35;6.47;;;14.10;99.90;;;;;;5075301;28;20052;-73
2023/07/07 03:13:48;;;;;;;10.95;6.85;;;14.10;99.90;;;;;;5086820;28;20040;-73
2023/07/07 03:16:23;;;;;;;11.38;6.85;;;14.10;99.90;;;;;;5077878;28;20373;-73
2023/07/07 03:18:54;;;;;;;8.77;6.80;;;14.10;99.90;;;;;;5088691;28;20048;-72
2023/07/07 03:21:21;;;;;;;9.98;6.70;;;14.10;99.90;;;;;;5084442;28;20411;-72
2023/07/07 03:23:47;;;;;;;9.27;6.35;;;14.10;99.90;;;;;;5075115;28;20350;-72
2023/07/07 03:26:16;;;;;;;10.30;7.40;;;14.20;99.90;;;;;;5081060;28;20043;-73
2023/07/07 03:28:42;;;;;;;11.07;6.90;;;14.20;99.90;;;;;;5076574;28;20060;-72
2023/07/07 03:31:17;;;;;;;10.55;7.20;;;14.30;99.90;;;;;;5079794;28;20046;-72
2023/07/07 03:33:45;;;;;;;10.83;6.67;;;14.20;99.90;;;;;;5077134;28;20058;-73
2023/07/07 03:36:12;;;;;;;11.63;6.55;;;14.30;99.90;;;;;;5078280;28;20045;-72
2023/07/07 03:38:40;;;;;;;8.95;6.70;;;14.30;99.90;;;;;;5073815;28;20127;-72
2023/07/07 03:41:11;;;;;;;10.00;7.03;;;14.30;99.90;;;;;;5074501;28;20469;-72
2023/07/07 03:43:37;;;;;;;9.20;6.82;;;14.30;99.90;;;;;;5080667;28;20046;-72
2023/07/07 03:46:04;;;;;;;9.30;6.60;;;14.30;99.90;;;;;;5097756;28;20032;-72
2023/07/07 03:48:30;;;;;;;10.88;6.72;;;14.30;99.90;;;;;;5093437;28;20048;-72
2023/07/07 03:51:01;;;;;;;11.70;7.25;;;14.30;99.90;;;;;;5093231;28;20040;-72
2023/07/07 03:53:29;;;;;;;9.80;6.80;;;14.30;99.90;;;;;;5093835;28;20411;-72
2023/07/07 03:55:55;;;;;;;9.90;6.28;;;14.30;99.90;;;;;;5094377;28;20388;-72
2023/07/07 03:58:22;;;;;;;9.63;6.70;;;14.30;99.90;;;;;;5093603;28;20430;-72
2023/07/07 04:00:48;;;;;;;10.18;6.47;;;14.30;99.90;;;;;;5094504;28;20040;-72
2023/07/07 04:03:15;;;;;;;10.88;6.82;;;14.30;99.90;;;;;;5088696;28;20066;-72
2023/07/07 04:05:48;;;;;;;10.57;7.20;;;14.30;99.90;;;;;;5085132;28;20040;-73
2023/07/07 04:08:21;;;;;;;9.75;6.88;;;14.40;99.90;;;;;;5080165;28;20036;-73
2023/07/07 04:11:02;;;;;;;9.95;6.40;;;14.40;99.90;;;;;;5080697;28;20032;-73
2023/07/07 04:13:31;;;;;;;9.40;6.60;;;14.50;99.90;;;;;;5092355;28;20376;-72
2023/07/07 04:16:05;;;;;;;8.52;6.75;;;14.50;99.90;;;;;;5073651;28;20145;-72
2023/07/07 04:18:32;;;;;;;9.43;6.22;;;14.50;99.90;;;;;;5073670;28;20055;-72
2023/07/07 04:21:05;;;;;;;9.30;6.90;;;14.50;99.90;;;;;;5088417;28;20054;-72
2023/07/07 04:23:32;;;;;;;8.35;6.38;;;14.50;99.90;;;;;;5093026;28;20032;-72
2023/07/07 04:25:58;;;;;;;8.90;6.50;;;14.60;99.90;;;;;;5094064;28;20397;-72
2023/07/07 04:28:24;;;;;;;10.57;6.30;;;14.60;99.90;;;;;;5094052;28;20323;-72
2023/07/07 04:30:55;;;;;;;7.50;5.70;;;14.60;99.90;;;;;;5084846;28;20070;-72
2023/07/07 04:33:22;;;;;;;9.40;6.53;;;14.70;99.90;;;;;;5073222;28;20123;-72
2023/07/07 04:36:02;;;;;;;9.10;6.20;;;14.70;99.90;;;;;;5089446;28;20126;-72
2023/07/07 04:38:32;;;;;;;10.32;5.95;;;14.80;99.90;;;;;;5073869;28;20142;-72
2023/07/07 04:41:12;;;;;;;9.40;6.05;;;14.80;99.90;;;;;;5073497;28;20036;-72
2023/07/07 04:43:41;;;;;;;7.55;5.95;;;14.90;99.90;;;;;;5087461;28;20548;-72
2023/07/07 04:46:09;;;;;;;8.70;5.38;;;14.90;99.90;;;;;;5073208;28;20037;-72
2023/07/07 04:48:35;;;;;;;10.65;6.07;;;15.00;99.90;;;;;;5083878;28;20040;-72
2023/07/07 04:51:03;;;;;;;9.23;6.78;;;15.10;99.90;;;;;;5074754;28;20040;-72
2023/07/07 04:53:30;;;;;;;8.68;6.43;;;15.20;99.90;;;;;;5073455;28;20037;-72
2023/07/07 04:56:00;;;;;;;11.40;6.47;;;15.20;99.90;;;;;;5082582;28;20040;-72
2023/07/07 04:58:27;;;;;;;7.53;5.68;;;15.30;99.90;;;;;;5087441;28;20040;-72
2023/07/07 05:01:06;;;;;;;8.98;6.68;;;15.40;99.90;;;;;;5075522;28;20051;-72
2023/07/07 05:03:32;;;;;;;9.60;6.30;;;15.50;99.90;;;;;;5093184;28;20500;-71
2023/07/07 05:05:58;;;;;;;8.05;5.63;;;15.60;99.90;;;;;;5093261;28;20044;-72
2023/07/07 05:08:24;;;;;;;10.20;6.72;;;15.60;99.90;;;;;;5090628;28;20477;-72
2023/07/07 05:10:49;;;;;;;9.45;6.50;;;15.70;99.90;;;;;;5093143;28;20048;-72
2023/07/07 05:13:15;;;;;;;10.05;6.15;;;15.80;99.90;;;;;;5085488;28;20054;-73
2023/07/07 05:15:41;;;;;;;9.35;6.00;;;15.90;99.90;;;;;;5074749;28;20267;-72
2023/07/07 05:18:07;;;;;;;8.35;5.65;;;16.00;99.90;;;;;;5082718;28;20045;-65
2023/07/07 05:20:33;;;;;;;8.20;5.57;;;16.10;99.90;;;;;;5087352;28;20036;-64
2023/07/07 05:22:59;;;;;;;7.38;5.57;;;16.20;99.90;;;;;;5089438;28;20039;-64
2023/07/07 05:25:24;;;;;;;9.63;5.97;;;16.30;99.90;;;;;;5072726;28;20036;-64
2023/07/07 05:27:50;;;;;;;7.75;5.20;;;16.30;99.90;;;;;;5084741;28;20051;-64
2023/07/07 05:30:16;;;;;;;7.97;5.57;;;16.40;99.90;;;;;;5092948;28;20107;-66
2023/07/07 05:32:42;;;;;;;8.95;5.13;;;16.50;99.90;;;;;;5092976;28;20036;-64
2023/07/07 05:35:07;;;;;;;6.63;4.63;;;16.60;99.90;;;;;;5092799;28;20051;-64
2023/07/07 05:37:33;;;;;;;6.15;4.82;;;16.70;99.90;;;;;;5082911;28;20047;-64
2023/07/07 05:39:59;;;;;;;7.88;4.78;;;16.80;99.90;;;;;;5080573;28;20473;-64
2023/07/07 05:42:25;;;;;;;6.50;5.00;;;16.80;99.90;;;;;;5080382;28;20434;-65
2023/07/07 05:44:51;;;;;;;7.47;5.40;;;16.90;99.90;;;;;;5092966;28;20429;-65
2023/07/07 05:47:17;;;;;;;9.48;5.15;;;17.00;99.90;;;;;;5077112;28;20115;-64
2023/07/07 05:49:42;;;;;;;6.20;4.70;;;17.10;99.90;;;;;;5080684;28;20036;-65
2023/07/07 05:52:08;;;;;;;6.55;5.00;;;17.20;99.90;;;;;;5092854;28;20036;-65
2023/07/07 05:54:34;;;;;;;7.70;5.00;;;17.20;99.90;;;;;;5092917;28;20040;-66
2023/07/07 05:57:02;;;;;;;7.90;5.07;;;17.30;99.90;;;;;;5096927;28;20040;-65
2023/07/07 05:59:30;;;;;;;6.28;4.75;;;17.40;99.90;;;;;;5089034;28;20043;-65
2023/07/07 06:01:55;;;;;;;7.47;4.60;;;17.50;99.90;;;;;;5076262;28;20504;-66
2023/07/07 06:04:21;;;;;;;7.13;4.70;;;17.60;99.90;;;;;;5076554;28;20029;-65
2023/07/07 06:06:47;;;;;;;6.45;5.03;;;17.60;99.90;;;;;;5090258;28;20086;-65
2023/07/07 06:09:12;;;;;;;7.82;5.30;;;17.70;99.90;;;;;;5071358;28;20041;-65
2023/07/07 06:11:38;;;;;;;8.60;4.82;;;17.80;99.90;;;;;;5079321;28;20385;-65
2023/07/07 06:14:04;;;;;;;7.28;4.50;;;17.90;99.90;;;;;;5074876;28;20137;-67
2023/07/07 06:16:30;;;;;;;6.35;4.60;;;17.90;99.90;;;;;;5074993;28;20040;-65
2023/07/07 06:18:56;;;;;;;6.90;4.50;;;18.00;99.90;;;;;;5080062;28;20504;-64
2023/07/07 06:21:22;;;;;;;6.30;4.15;;;18.10;99.90;;;;;;5075198;28;20040;-65
2023/07/07 06:23:47;;;;;;;6.20;4.25;;;18.20;99.90;;;;;;5088323;28;20044;-66
2023/07/07 06:26:13;;;;;;;6.28;3.83;;;18.20;99.90;;;;;;5075712;28;20044;-66
2023/07/07 06:28:39;;;;;;;6.57;4.22;;;18.30;99.90;;;;;;5074707;28;20037;-65
2023/07/07 06:31:05;;;;;;;6.28;4.07;;;18.40;99.90;;;;;;5081924;28;20113;-65
2023/07/07 06:33:31;;;;;;;5.45;4.05;;;18.50;99.90;;;;;;5090694;28;20067;-65
2023/07/07 06:35:56;;;;;;;6.30;3.60;;;18.60;99.90;;;;;;5094094;28;20059;-65
2023/07/07 06:38:22;;;;;;;6.22;3.80;;;18.70;99.90;;;;;;5080544;28;20461;-66
2023/07/07 06:40:48;;;;;;;5.20;3.65;;;18.80;99.90;;;;;;5091380;28;20124;-66
2023/07/07 06:43:18;;;;;;;5.10;3.42;;;18.90;99.90;;;;;;5075627;28;20036;-65
2023/07/07 06:45:45;;;;;;;5.38;3.33;;;19.00;99.90;;;;;;5092589;28;20165;-65
2023/07/07 06:48:11;;;;;;;6.97;3.50;;;19.10;99.90;;;;;;5095077;28;20036;-65
2023/07/07 06:50:40;;;;;;;5.72;3.75;;;19.10;99.90;;;;;;5091431;28;20043;-65
2023/07/07 06:53:06;;;;;;;5.85;3.65;;;19.30;99.90;;;;;;5081516;28;20070;-65
2023/07/07 06:55:31;;;;;;;6.38;3.45;;;19.40;99.90;;;;;;5085408;28;20173;-65
2023/07/07 06:57:57;;;;;;;4.40;2.88;;;19.50;99.90;;;;;;5086093;28;20071;-65
2023/07/07 07:00:23;;;;;;;5.07;2.90;;;19.60;99.90;;;;;;5075306;28;20052;-65
2023/07/07 07:02:49;;;;;;;5.45;3.17;;;19.60;99.90;;;;;;5083616;28;20047;-65
2023/07/07 07:05:14;;;;;;;5.63;3.13;;;19.80;99.90;;;;;;5074597;28;20369;-65
2023/07/07 07:07:40;;;;;;;5.05;2.55;;;19.80;99.90;;;;;;5074186;28;20052;-65
2023/07/07 07:10:07;;;;;;;3.75;2.88;;;19.90;99.90;;;;;;5073993;28;20089;-64
2023/07/07 07:12:33;;;;;;;5.97;3.03;;;20.00;99.90;;;;;;5081836;28;20032;-65
2023/07/07 07:14:58;;;;;;;5.57;2.65;;;20.10;99.90;;;;;;5080520;28;20119;-65
2023/07/07 07:17:25;;;;;;;6.03;2.95;;;20.20;99.90;;;;;;5073903;28;20115;-65
2023/07/07 07:19:51;;;;;;;4.80;2.63;;;20.30;99.90;;;;;;5080623;28;20070;-66
2023/07/07 07:22:17;;;;;;;4.97;2.45;;;20.40;99.90;;;;;;5094311;28;20032;-65
2023/07/07 07:24:43;;;;;;;4.55;2.35;;;20.50;99.90;;;;;;5083297;28;20119;-64
2023/07/07 07:27:08;;;;;;;6.30;2.63;;;20.60;99.90;;;;;;5090033;28;20068;-66
2023/07/07 07:29:34;;;;;;;3.60;2.40;;;20.60;99.90;;;;;;5093473;28;20078;-66
2023/07/07 07:32:00;;;;;;;3.78;2.30;;;20.80;99.90;;;;;;5081758;28;20037;-65
2023/07/07 07:34:29;;;;;;;5.35;2.40;;;20.90;99.90;;;;;;5066525;28;20080;-67
2023/07/07 07:36:56;;;;;;;3.28;1.85;;;21.00;99.90;;;;;;5072191;28;20481;-66
2023/07/07 07:39:23;;;;;;;5.97;2.50;;;21.10;99.90;;;;;;5074177;28;20154;-66
2023/07/07 07:41:50;;;;;;;3.03;1.95;;;21.20;99.90;;;;;;5074241;28;20048;-65
2023/07/07 07:44:17;;;;;;;3.28;2.15;;;21.20;99.90;;;;;;5073098;28;20043;-65
2023/07/07 07:46:44;;;;;;;4.60;1.90;;;21.30;99.90;;;;;;5073084;28;20048;-65
2023/07/07 07:49:10;;;;;;;12.60;2.58;;;21.40;99.90;;;;;;5073607;28;20033;-65
2023/07/07 07:51:38;;;;;;;3.22;1.92;;;21.50;99.90;;;;;;5071916;28;20043;-65
2023/07/07 07:54:05;;;;;;;4.68;2.38;;;21.50;99.90;;;;;;5073875;28;20056;-65
2023/07/07 07:56:31;;;;;;;3.40;1.90;;;21.60;99.90;;;;;;5074008;28;20040;-65
2023/07/07 07:58:57;;;;;;;3.28;1.85;;;21.70;99.90;;;;;;5056590;28;20041;-65
2023/07/07 08:01:22;;;;;;;3.25;1.77;;;21.80;99.90;;;;;;5073699;28;20384;-65
2023/07/07 08:03:48;;;;;;;3.60;1.95;;;21.90;99.90;;;;;;5073980;28;20071;-66
2023/07/07 08:06:14;;;;;;;4.72;2.03;;;22.00;99.90;;;;;;5073589;28;20039;-65
2023/07/07 08:08:39;;;;;;;2.90;1.83;;;22.10;99.90;;;;;;5074144;28;20139;-65
2023/07/07 08:11:05;;;;;;;3.67;2.10;;;22.10;99.90;;;;;;5074070;28;20093;-65
2023/07/07 08:13:31;;;;;;;3.28;1.75;;;22.10;99.90;;;;;;5081661;28;20405;-65
2023/07/07 08:15:56;;;;;;;3.45;1.75;;;22.20;99.90;;;;;;5081613;28;20048;-66
2023/07/07 08:18:22;;;;;;;2.88;1.80;;;22.30;99.90;;;;;;5072523;28;20040;-65
2023/07/07 08:20:48;;;;;;;2.78;1.80;;;22.40;99.90;;;;;;5072388;28;20048;-65
2023/07/07 08:23:13;;;;;;;3.00;1.60;;;22.40;99.90;;;;;;5072381;28;20036;-65
2023/07/07 08:25:39;;;;;;;3.95;1.80;;;22.50;99.90;;;;;;5073730;28;20045;-66
2023/07/07 08:28:05;;;;;;;5.15;1.80;;;22.70;99.90;;;;;;5073539;28;20495;-66
2023/07/07 08:30:31;;;;;;;2.95;1.52;;;22.70;99.90;;;;;;5073104;28;20052;-67
2023/07/07 08:32:56;;;;;;;2.58;1.80;;;22.70;99.90;;;;;;5060857;28;20128;-65
2023/07/07 08:35:22;;;;;;;3.28;1.58;;;22.80;99.90;;;;;;5072655;28;20095;-65
2023/07/07 08:37:48;;;;;;;3.92;1.40;;;22.90;99.90;;;;;;5068451;28;20079;-66
2023/07/07 08:40:18;;;;;;;2.35;1.30;;;23.00;99.90;;;;;;5072117;28;20063;-67
2023/07/07 08:42:45;;;;;;;2.70;1.40;;;23.10;99.90;;;;;;5069924;28;20039;-66
2023/07/07 08:45:17;;;;;;;5.38;1.73;;;23.10;99.90;;;;;;5071897;28;20036;-65
2023/07/07 08:47:59;;;;;;;2.55;1.40;;;23.10;99.90;;;;;;5072099;28;20052;-65
2023/07/07 08:50:31;;;;;;;4.20;1.65;;;23.20;99.90;;;;;;5068695;28;20080;-66
2023/07/07 08:52:59;;;;;;;3.25;1.70;;;23.30;99.90;;;;;;5073291;28;20120;-65
2023/07/07 08:56:13;;;;;;;4.20;1.60;;;23.30;99.90;;;;;;5073159;28;20040;-65
2023/07/07 08:58:54;;;;;;;3.25;1.60;;;23.40;99.90;;;;;;5052537;28;20053;-65
2023/07/07 09:01:40;;;;;;;2.85;1.50;;;23.50;99.90;;;;;;5072677;28;20040;-66
2023/07/07 09:04:24;;;;;;;2.97;1.80;;;23.60;99.90;;;;;;5072438;28;20041;-65
2023/07/07 09:07:09;;;;;;;3.38;1.70;;;23.70;99.90;;;;;;5072890;28;20056;-65
2023/07/07 09:10:02;;;;;;;2.70;1.80;;;23.80;99.90;;;;;;5072737;28;20032;-64
2023/07/07 09:12:54;;;;;;;3.35;1.60;;;23.70;99.90;;;;;;5072504;28;20115;-64
2023/07/07 09:15:26;;;;;;;5.22;2.10;;;23.90;99.90;;;;;;5055884;28;20173;-65
2023/07/07 09:18:05;;;;;;;27.80;6.53;;;24.10;99.90;;;;;;5071596;28;20501;-64
2023/07/07 09:20:34;;;;;;;4.07;1.75;;;24.10;99.90;;;;;;5072303;28;20463;-65
2023/07/07 09:23:09;;;;;;;3.45;1.50;;;24.20;99.90;;;;;;5072737;28;20044;-64
2023/07/07 09:25:49;;;;;;;3.03;1.42;;;24.30;99.90;;;;;;5072742;28;20040;-64
2023/07/07 09:28:16;;;;;;;4.50;1.50;;;24.30;99.90;;;;;;5070840;28;20040;-64
2023/07/07 09:30:54;;;;;;;2.35;1.35;;;24.50;99.90;;;;;;5071459;28;20385;-65
2023/07/07 09:33:22;;;;;;;3.47;1.25;;;24.60;99.90;;;;;;5059362;28;20036;-65
2023/07/07 09:36:07;;;;;;;2.67;1.35;;;24.60;99.90;;;;;;5072342;28;20381;-65
2023/07/07 09:38:43;;;;;;;2.20;1.33;;;24.60;99.90;;;;;;5064374;28;20371;-65
2023/07/07 09:41:13;;;;;;;2.28;1.30;;;24.70;99.90;;;;;;5072812;28;20040;-66
2023/07/07 09:44:19;;;;;;;4.43;1.40;;;24.80;99.90;;;;;;5072254;28;20048;-65
2023/07/07 09:46:54;;;;;;;2.40;1.33;;;24.90;99.90;;;;;;5053023;28;20081;-65
2023/07/07 09:49:40;;;;;;;3.47;1.52;;;25.00;99.90;;;;;;5056878;28;20101;-66
2023/07/07 09:52:28;;;;;;;2.72;1.40;;;25.10;99.90;;;;;;5072859;28;20342;-65
2023/07/07 09:54:55;;;;;;;2.50;1.40;;;25.20;99.90;;;;;;5072766;28;20123;-65
2023/07/07 09:57:40;;;;;;;2.75;1.40;;;25.30;99.90;;;;;;5072029;28;20037;-65
2023/07/07 10:00:07;;;;;;;3.95;1.50;;;25.50;99.90;;;;;;5071313;28;20044;-66
2023/07/07 10:05:36;;;;;;;4.00;1.40;;;25.60;99.90;;;;;;5067021;28;20051;-64
2023/07/07 10:08:06;;;;;;;3.20;1.20;;;25.70;99.90;;;;;;5072236;28;20041;-64
2023/07/07 10:10:32;;;;;;;3.22;1.77;;;25.80;99.90;;;;;;5072320;28;20056;-66
2023/07/07 10:12:58;;;;;;;3.00;1.52;;;25.80;99.90;;;;;;5071691;28;20376;-64
2023/07/07 10:15:48;;;;;;;3.15;1.60;;;25.80;99.90;;;;;;5070305;28;20044;-64
2023/07/07 10:18:20;;;;;;;2.88;1.60;;;25.90;99.90;;;;;;5055044;28;20049;-65
2023/07/07 10:20:46;;;;;;;4.20;1.50;;;26.00;99.90;;;;;;5070438;28;20036;-66
2023/07/07 10:23:13;;;;;;;3.33;1.30;;;26.00;99.90;;;;;;5069728;28;20432;-65
2023/07/07 10:25:41;;;;;;;2.78;1.48;;;26.10;99.90;;;;;;5070978;28;20447;-66
2023/07/07 10:28:10;;;;;;;2.55;1.38;;;26.20;99.90;;;;;;5071809;28;20048;-65
2023/07/07 10:30:37;;;;;;;2.78;1.40;;;26.30;99.90;;;;;;5053931;28;20044;-66
2023/07/07 10:33:03;;;;;;;2.80;1.45;;;26.40;99.90;;;;;;5071649;28;20048;-65
2023/07/07 10:35:31;;;;;;;2.53;1.50;;;26.40;99.90;;;;;;5071585;28;20114;-66
2023/07/07 10:38:03;;;;;;;3.97;1.85;;;26.40;99.90;;;;;;5071312;28;20397;-65
2023/07/07 10:40:30;;;;;;;3.05;1.58;;;26.40;99.90;;;;;;5071597;28;20041;-64
2023/07/07 10:42:57;;;;;;;3.22;1.40;;;26.30;99.90;;;;;;5069070;28;20036;-64
2023/07/07 10:45:23;;;;;;;3.28;1.83;;;26.30;99.90;;;;;;5075306;28;20039;-64
2023/07/07 10:47:49;;;;;;;2.78;1.55;;;26.50;99.90;;;;;;5074852;28;20376;-65
2023/07/07 10:50:25;;;;;;;3.45;1.38;;;26.60;99.90;;;;;;5074792;28;20373;-65
2023/07/07 10:52:55;;;;;;;2.30;1.33;;;26.70;99.90;;;;;;5075062;28;20048;-64
2023/07/07 10:55:32;;;;;;;5.50;1.70;;;26.80;99.90;;;;;;5074745;28;20041;-66
2023/07/07 10:58:04;;;;;;;3.13;1.67;;;26.90;99.90;;;;;;5075488;28;20174;-64
2023/07/07 11:00:53;;;;;;;4.05;1.50;;;27.00;99.90;;;;;;5074734;28;20033;-64
2023/07/07 11:03:40;;;;;;;2.13;1.45;;;27.10;99.90;;;;;;5068499;28;20397;-64
2023/07/07 11:06:14;;;;;;;2.38;1.25;;;27.30;99.90;;;;;;5073387;28;20093;-64
2023/07/07 11:08:55;;;;;;;2.20;1.40;;;27.40;99.90;;;;;;5074090;28;20037;-65
2023/07/07 11:11:30;;;;;;;3.92;1.50;;;27.50;99.90;;;;;;5074896;28;20048;-65
2023/07/07 11:14:05;;;;;;;6.32;1.40;;;27.60;99.90;;;;;;5074317;28;20046;-65
2023/07/07 11:16:42;;;;;;;6.20;1.63;;;27.70;99.90;;;;;;5074584;28;20048;-64
2023/07/07 11:19:32;;;;;;;4.82;1.50;;;27.70;99.90;;;;;;5074522;28;20048;-66
2023/07/07 11:22:21;;;;;;;2.45;1.55;;;27.70;99.90;;;;;;5074822;28;20045;-66
2023/07/07 11:24:56;;;;;;;2.42;1.40;;;27.70;99.90;;;;;;5074092;28;20115;-65
2023/07/07 11:27:41;;;;;;;3.05;1.60;;;27.70;99.90;;;;;;5074762;28;20037;-66
2023/07/07 11:30:32;;;;;;;2.70;1.45;;;27.80;99.90;;;;;;5073753;28;20036;-66
2023/07/07 11:33:29;;;;;;;2.30;1.42;;;28.00;99.90;;;;;;5073500;28;20400;-66
2023/07/07 11:36:19;;;;;;;4.85;1.63;;;28.00;99.90;;;;;;5073922;28;20056;-66
2023/07/07 11:38:51;;;;;;;2.85;1.23;;;28.10;99.90;;;;;;5070877;28;20040;-67
2023/07/07 11:41:22;;;;;;;2.58;1.20;;;28.10;99.90;;;;;;5071845;28;20044;-66
2023/07/07 11:44:13;;;;;;;2.22;1.40;;;28.20;99.90;;;;;;5067611;28;20045;-65
2023/07/07 11:47:03;;;;;;;3.00;1.77;;;28.30;99.90;;;;;;5055476;28;20106;-67
2023/07/07 11:49:39;;;;;;;2.45;1.50;;;28.30;99.90;;;;;;5073944;28;20072;-66
2023/07/07 11:52:25;;;;;;;2.75;1.55;;;28.30;99.90;;;;;;5074167;28;20037;-66
2023/07/07 11:55:31;;;;;;;2.88;1.35;;;28.40;99.90;;;;;;5059257;28;20495;-66
2023/07/07 11:58:00;;;;;;;2.33;1.40;;;28.60;99.90;;;;;;5065950;28;20075;-66
2023/07/07 12:00:40;;;;;;;2.10;1.30;;;28.60;99.90;;;;;;5073110;28;20700;-66
2023/07/07 12:03:29;;;;;;;2.40;1.35;;;28.60;99.90;;;;;;5068740;28;20043;-66
2023/07/07 12:06:02;;;;;;;2.42;1.30;;;28.60;99.90;;;;;;5071097;28;20044;-66
2023/07/07 12:08:43;;;;;;;2.47;1.40;;;28.60;99.90;;;;;;5072339;28;20043;-65
2023/07/07 12:11:13;;;;;;;2.85;1.58;;;28.70;99.90;;;;;;5069582;28;20033;-65
2023/07/07 12:13:50;;;;;;;2.40;1.50;;;28.80;99.90;;;;;;5072197;28;20472;-65
2023/07/07 12:16:21;;;;;;;2.67;1.52;;;28.90;99.90;;;;;;5073031;28;20410;-66
2023/07/07 12:18:52;;;;;;;2.42;1.42;;;29.00;99.90;;;;;;5072975;28;20044;-67
2023/07/07 12:21:26;;;;;;;2.58;1.25;;;29.00;99.90;;;;;;5073949;28;20055;-67
2023/07/07 12:24:02;;;;;;;3.00;1.55;;;29.10;99.90;;;;;;5073705;28;20036;-68
2023/07/07 12:26:34;;;;;;;2.53;1.42;;;29.20;99.90;;;;;;5073662;28;20086;-67
2023/07/07 12:29:02;;;;;;;2.90;1.40;;;29.20;99.90;;;;;;5054784;28;20110;-67
2023/07/07 12:31:29;;;;;;;3.33;1.50;;;29.30;99.90;;;;;;5062169;28;20037;-65
2023/07/07 12:33:55;;;;;;;2.65;1.48;;;29.30;99.90;;;;;;5067556;28;20135;-66
2023/07/07 12:36:29;;;;;;;3.00;1.58;;;29.40;99.90;;;;;;5073297;28;20119;-66
2023/07/07 12:38:57;;;;;;;2.10;1.20;;;29.50;99.30;;;;;;5070150;28;20074;-67
2023/07/07 12:41:26;;;;;;;2.00;1.17;;;29.60;99.90;;;;;;5062862;28;20477;-66
2023/07/07 12:44:01;;;;;;;2.72;1.40;;;29.80;99.90;;;;;;5070813;28;20123;-66
2023/07/07 12:46:33;;;;;;;2.60;1.48;;;29.70;99.70;;;;;;5068497;28;20056;-65
2023/07/07 12:49:17;;;;;;;2.28;1.45;;;29.60;98.40;;;;;;5061397;28;20478;-65
2023/07/07 12:51:43;;;;;;;3.33;1.42;;;29.40;97.60;;;;;;5072975;28;20189;-65
2023/07/07 12:54:35;;;;;;;2.75;1.23;;;29.30;98.50;;;;;;5072442;28;20504;-65
2023/07/07 12:57:24;;;;;;;2.20;1.40;;;29.20;97.00;;;;;;5070539;28;20037;-65
2023/07/07 12:59:50;;;;;;;2.65;1.40;;;29.10;97.60;;;;;;5072609;28;20048;-64
2023/07/07 13:02:33;;;;;;;2.35;1.48;;;29.00;97.60;;;;;;5072077;28;20498;-66
2023/07/07 13:05:21;;;;;;;2.35;1.40;;;28.90;96.90;;;;;;5061762;28;20040;-66
2023/07/07 13:07:59;;;;;;;2.47;1.40;;;28.80;96.10;;;;;;5070785;28;20452;-65